createdAt,value
2018-03-17T00:00:33.895Z,70.84
2018-03-17T00:01:33.857Z,70.28
2018-03-17T00:02:33.873Z,70.28
2018-03-17T00:03:33.879Z,70.18
2018-03-17T00:04:33.888Z,70.47
2018-03-17T00:05:33.905Z,69.9
2018-03-17T00:06:33.918Z,70.37
2018-03-17T00:07:48.591Z,70.09
2018-03-17T00:08:33.939Z,70.37
2018-03-17T00:09:33.951Z,70.09
2018-03-17T00:11:33.970Z,69.81
2018-03-17T00:12:33.981Z,69.2
2018-03-17T00:13:33.994Z,69.49
2018-03-17T00:14:34.005Z,69.96
2018-03-17T00:15:34.016Z,70.28
2018-03-17T00:16:34.042Z,69.86
2018-03-17T00:17:34.039Z,70.84
2018-03-17T00:18:34.054Z,71.22
2018-03-17T00:19:34.063Z,70.43
2018-03-17T00:20:34.072Z,70.81
2018-03-17T00:21:34.084Z,70.18
2018-03-17T00:22:48.761Z,70.15
2018-03-17T00:25:34.130Z,69.96
2018-03-17T00:26:34.140Z,70.15
2018-03-17T00:27:34.149Z,70.34
2018-03-17T00:28:34.165Z,70.05
2018-03-17T00:29:34.172Z,69.86
2018-03-17T00:30:34.186Z,70.05
2018-03-17T00:32:34.207Z,70.34
2018-03-17T00:33:34.216Z,69.67
2018-03-17T00:34:34.240Z,69.86
2018-03-17T00:35:34.238Z,69.58
2018-03-17T00:36:34.249Z,70.15
2018-03-17T00:38:34.276Z,69.77
2018-03-17T00:39:34.286Z,69.67
2018-03-17T00:41:34.307Z,70.24
2018-03-17T00:42:34.321Z,70.34
2018-03-17T00:43:34.333Z,70.34
2018-03-17T00:44:34.342Z,69.58
2018-03-17T00:45:34.351Z,69.49
2018-03-17T00:46:34.360Z,69.2
2018-03-17T00:47:34.372Z,69.49
2018-03-17T00:48:34.385Z,69.77
2018-03-17T00:49:34.404Z,69.67
2018-03-17T00:50:34.406Z,69.49
2018-03-17T00:51:34.416Z,69.86
2018-03-17T00:52:34.429Z,69.77
2018-03-17T00:53:34.436Z,69.77
2018-03-17T00:54:49.116Z,70.15
2018-03-17T00:55:34.466Z,69.58
2018-03-17T00:56:34.474Z,70.24
2018-03-17T00:57:34.532Z,70.34
2018-03-17T00:58:34.503Z,70.43
2018-03-17T00:59:34.504Z,70.24
2018-03-17T01:00:34.518Z,70.34
2018-03-17T01:01:34.525Z,70.43
2018-03-17T01:02:34.537Z,69.96
2018-03-17T01:03:34.550Z,70.34
2018-03-17T01:04:34.565Z,70.15
2018-03-17T01:05:34.569Z,70.15
2018-03-17T01:06:34.582Z,70.9
2018-03-17T01:07:34.593Z,71.28
2018-03-17T01:08:34.607Z,70.9
2018-03-17T01:09:34.611Z,70.81
2018-03-17T01:10:49.291Z,70.62
2018-03-17T01:11:34.642Z,71.19
2018-03-17T01:12:34.654Z,70.9
2018-03-17T01:13:34.401Z,70.81
2018-03-17T01:14:34.671Z,69.86
2018-03-17T01:15:34.679Z,70.05
2018-03-17T01:16:34.690Z,70.15
2018-03-17T01:17:34.702Z,70.43
2018-03-17T01:18:34.711Z,71
2018-03-17T01:19:34.722Z,70.43
2018-03-17T01:20:34.736Z,71
2018-03-17T01:21:34.743Z,70.9
2018-03-17T01:22:34.754Z,70.24
2018-03-17T01:23:34.509Z,70.24
2018-03-17T01:24:34.777Z,70.81
2018-03-17T01:25:34.786Z,70.53
2018-03-17T01:26:49.464Z,70.9
2018-03-17T01:27:34.808Z,70.81
2018-03-17T01:28:34.823Z,70.62
2018-03-17T01:29:34.830Z,71.09
2018-03-17T01:30:34.844Z,70.72
2018-03-17T01:31:34.849Z,70.72
2018-03-17T01:32:34.863Z,71.19
2018-03-17T01:33:34.874Z,71
2018-03-17T01:34:34.884Z,71.09
2018-03-17T01:35:34.898Z,70.9
2018-03-17T01:36:34.908Z,70.9
2018-03-17T01:37:34.916Z,70.9
2018-03-17T01:38:34.929Z,70.9
2018-03-17T01:39:34.996Z,70.81
2018-03-17T01:40:34.998Z,71.47
2018-03-17T01:41:34.959Z,71.94
2018-03-17T01:42:49.637Z,71.47
2018-03-17T01:43:34.984Z,71.37
2018-03-17T01:44:34.993Z,70.62
2018-03-17T01:45:35.008Z,70.9
2018-03-17T01:46:35.014Z,70.77
2018-03-17T01:47:35.026Z,71
2018-03-17T01:48:35.040Z,70.3
2018-03-17T01:49:35.048Z,71
2018-03-17T01:50:35.059Z,70.87
2018-03-17T01:51:35.068Z,70.96
2018-03-17T01:52:35.086Z,70.68
2018-03-17T01:53:35.098Z,71.15
2018-03-17T01:54:35.101Z,70.96
2018-03-17T01:55:35.159Z,70.39
2018-03-17T01:56:35.120Z,70.39
2018-03-17T01:57:49.799Z,70.68
2018-03-17T01:59:35.152Z,71.72
2018-03-17T02:00:35.165Z,71.81
2018-03-17T02:01:35.177Z,71.72
2018-03-17T02:02:35.185Z,71.15
2018-03-17T02:03:35.195Z,71.25
2018-03-17T02:04:35.215Z,71.06
2018-03-17T02:05:35.218Z,70.96
2018-03-17T02:06:35.229Z,71.25
2018-03-17T02:07:35.240Z,71.34
2018-03-17T02:08:35.249Z,71.34
2018-03-17T02:09:35.259Z,70.77
2018-03-17T02:10:35.274Z,71.15
2018-03-17T02:11:35.281Z,70.96
2018-03-17T02:13:35.303Z,70.96
2018-03-17T02:15:35.324Z,70.96
2018-03-17T02:16:35.337Z,70.96
2018-03-17T02:17:35.343Z,71.53
2018-03-17T02:18:35.359Z,71.43
2018-03-17T02:19:35.368Z,71.34
2018-03-17T02:20:35.376Z,70.87
2018-03-17T02:21:35.383Z,71.15
2018-03-17T02:22:35.397Z,71.25
2018-03-17T02:23:35.448Z,70.77
2018-03-17T02:24:35.419Z,71.06
2018-03-17T02:25:35.431Z,71.06
2018-03-17T02:26:35.440Z,71.25
2018-03-17T02:27:35.447Z,71.06
2018-03-17T02:28:35.456Z,70.49
2018-03-17T02:29:50.139Z,70.77
2018-03-17T02:30:35.486Z,71.06
2018-03-17T02:31:35.496Z,70.58
2018-03-17T02:32:35.506Z,70.96
2018-03-17T02:33:35.512Z,71.06
2018-03-17T02:34:35.531Z,70.87
2018-03-17T02:35:35.552Z,71.34
2018-03-17T02:36:35.544Z,71.43
2018-03-17T02:37:35.566Z,70.96
2018-03-17T02:38:35.567Z,70.96
2018-03-17T02:39:35.578Z,70.87
2018-03-17T02:40:35.585Z,70.96
2018-03-17T02:41:35.598Z,71.34
2018-03-17T02:42:35.607Z,71.62
2018-03-17T02:43:35.681Z,72.09
2018-03-17T02:44:35.628Z,71.91
2018-03-17T02:45:50.305Z,72
2018-03-17T02:46:35.705Z,71.15
2018-03-17T02:48:35.773Z,71.72
2018-03-17T02:49:35.684Z,71.72
2018-03-17T02:50:35.695Z,71.91
2018-03-17T02:51:35.455Z,71.53
2018-03-17T02:52:35.822Z,71.62
2018-03-17T02:53:35.723Z,71.53
2018-03-17T02:54:35.733Z,71.72
2018-03-17T02:55:35.749Z,71.53
2018-03-17T02:56:35.753Z,71.72
2018-03-17T02:57:35.765Z,71.72
2018-03-17T02:58:35.875Z,71.62
2018-03-17T02:59:35.795Z,71.72
2018-03-17T03:00:35.801Z,71.25
2018-03-17T03:01:50.471Z,71.62
2018-03-17T03:02:35.821Z,71.62
2018-03-17T03:03:35.833Z,71.53
2018-03-17T03:04:35.839Z,71.91
2018-03-17T03:05:35.848Z,71.43
2018-03-17T03:06:35.881Z,70.96
2018-03-17T03:07:35.922Z,71.25
2018-03-17T03:08:35.881Z,70.96
2018-03-17T03:09:35.890Z,71.43
2018-03-17T03:10:35.902Z,71.72
2018-03-17T03:11:35.913Z,71.53
2018-03-17T03:12:35.922Z,71.81
2018-03-17T03:13:35.931Z,71.43
2018-03-17T03:14:35.944Z,71.43
2018-03-17T03:15:35.954Z,72
2018-03-17T03:17:50.644Z,71.34
2018-03-17T03:18:36.035Z,71.43
2018-03-17T03:19:36.011Z,71.06
2018-03-17T03:20:36.053Z,70.96
2018-03-17T03:21:36.016Z,70.77
2018-03-17T03:22:36.027Z,70.87
2018-03-17T03:23:36.041Z,71.06
2018-03-17T03:24:36.049Z,71.15
2018-03-17T03:25:36.107Z,70.96
2018-03-17T03:26:36.068Z,70.96
2018-03-17T03:27:36.082Z,70.77
2018-03-17T03:29:36.097Z,70.58
2018-03-17T03:30:36.119Z,70.96
2018-03-17T03:31:36.126Z,71.43
2018-03-17T03:32:50.798Z,71.34
2018-03-17T03:33:36.142Z,71.81
2018-03-17T03:35:36.160Z,71.25
2018-03-17T03:36:36.174Z,71.34
2018-03-17T03:37:36.187Z,71.34
2018-03-17T03:38:36.192Z,71.15
2018-03-17T03:39:36.204Z,70.87
2018-03-17T03:40:36.213Z,70.77
2018-03-17T03:41:36.224Z,70.77
2018-03-17T03:42:36.235Z,70.96
2018-03-17T03:43:36.250Z,70.77
2018-03-17T03:44:36.258Z,70.96
2018-03-17T03:45:36.264Z,71.06
2018-03-17T03:46:36.278Z,70.96
2018-03-17T03:47:36.286Z,70.96
2018-03-17T03:49:36.309Z,70.77
2018-03-17T03:51:36.329Z,70.87
2018-03-17T03:52:36.337Z,70.96
2018-03-17T03:53:36.349Z,70.96
2018-03-17T03:54:36.357Z,70.96
2018-03-17T03:55:36.114Z,71.25
2018-03-17T03:56:36.388Z,70.87
2018-03-17T03:57:36.400Z,71.06
2018-03-17T03:58:36.401Z,71.34
2018-03-17T03:59:36.412Z,72
2018-03-17T04:00:36.419Z,71.72
2018-03-17T04:01:36.431Z,71.81
2018-03-17T04:02:36.443Z,71.43
2018-03-17T04:03:36.457Z,71.91
2018-03-17T04:04:51.129Z,71.62
2018-03-17T04:06:36.486Z,71.72
2018-03-17T04:07:36.498Z,71.34
2018-03-17T04:08:36.507Z,70.96
2018-03-17T04:09:36.514Z,71.25
2018-03-17T04:10:36.530Z,71.25
2018-03-17T04:11:36.535Z,70.96
2018-03-17T04:12:36.543Z,71.34
2018-03-17T04:13:36.557Z,70.87
2018-03-17T04:14:36.568Z,70.77
2018-03-17T04:15:36.575Z,70.77
2018-03-17T04:16:36.692Z,70.96
2018-03-17T04:17:36.595Z,71.15
2018-03-17T04:18:36.606Z,70.77
2018-03-17T04:20:51.296Z,70.87
2018-03-17T04:21:36.390Z,71.15
2018-03-17T04:22:36.652Z,71.34
2018-03-17T04:24:36.669Z,71.34
2018-03-17T04:25:36.681Z,71.34
2018-03-17T04:26:36.688Z,70.77
2018-03-17T04:27:36.446Z,70.87
2018-03-17T04:28:36.712Z,70.68
2018-03-17T04:29:36.723Z,70.87
2018-03-17T04:30:36.744Z,71.34
2018-03-17T04:31:36.742Z,71.72
2018-03-17T04:32:36.751Z,71.91
2018-03-17T04:33:36.761Z,71.72
2018-03-17T04:34:36.771Z,71.72
2018-03-17T04:35:36.786Z,71.62
2018-03-17T04:36:51.459Z,71.43
2018-03-17T04:37:36.802Z,71.15
2018-03-17T04:38:36.814Z,72.19
2018-03-17T04:39:36.824Z,71.72
2018-03-17T04:40:36.834Z,71.53
2018-03-17T04:41:36.844Z,71.43
2018-03-17T04:42:36.853Z,72.28
2018-03-17T04:43:36.917Z,72.19
2018-03-17T04:44:36.883Z,71.25
2018-03-17T04:45:36.886Z,71.43
2018-03-17T04:46:36.900Z,71.72
2018-03-17T04:47:36.905Z,71.62
2018-03-17T04:48:36.916Z,72.28
2018-03-17T04:49:36.925Z,72.09
2018-03-17T04:50:36.937Z,72.19
2018-03-17T04:51:36.945Z,72
2018-03-17T04:52:51.623Z,72.19
2018-03-17T04:53:36.965Z,72.66
2018-03-17T04:54:36.976Z,72.75
2018-03-17T04:56:36.998Z,72.38
2018-03-17T04:57:37.006Z,72.66
2018-03-17T04:58:37.019Z,72.09
2018-03-17T04:59:37.029Z,72.94
2018-03-17T05:00:37.036Z,72.85
2018-03-17T05:01:37.049Z,72.75
2018-03-17T05:02:37.058Z,72.56
2018-03-17T05:03:37.067Z,72.66
2018-03-17T05:04:37.080Z,73.03
2018-03-17T05:05:37.088Z,72.94
2018-03-17T05:06:37.301Z,73.13
2018-03-17T05:07:51.777Z,72.85
2018-03-17T05:09:37.132Z,73.13
2018-03-17T05:10:37.141Z,73.41
2018-03-17T05:11:37.204Z,73.6
2018-03-17T05:12:37.163Z,73.32
2018-03-17T05:13:37.172Z,73.22
2018-03-17T05:14:37.197Z,73.6
2018-03-17T05:15:37.196Z,73.41
2018-03-17T05:16:37.204Z,73.51
2018-03-17T05:17:37.211Z,73.6
2018-03-17T05:18:37.223Z,73.6
2018-03-17T05:19:37.234Z,73.51
2018-03-17T05:20:37.240Z,73.51
2018-03-17T05:21:37.253Z,73.22
2018-03-17T05:22:37.263Z,73.41
2018-03-17T05:24:37.283Z,73.22
2018-03-17T05:25:37.343Z,73.32
2018-03-17T05:26:37.310Z,73.51
2018-03-17T05:27:37.313Z,73.41
2018-03-17T05:28:37.323Z,73.6
2018-03-17T05:29:37.332Z,73.41
2018-03-17T05:30:37.344Z,73.6
2018-03-17T05:31:37.352Z,73.32
2018-03-17T05:32:37.365Z,73.22
2018-03-17T05:33:37.374Z,73.88
2018-03-17T05:34:37.385Z,74.26
2018-03-17T05:35:37.419Z,74.07
2018-03-17T05:36:37.405Z,73.69
2018-03-17T05:37:37.413Z,73.79
2018-03-17T05:38:37.424Z,73.88
2018-03-17T05:39:52.104Z,74.07
2018-03-17T05:40:37.447Z,73.98
2018-03-17T05:41:37.466Z,73.98
2018-03-17T05:42:37.470Z,74.17
2018-03-17T05:43:37.474Z,73.6
2018-03-17T05:44:37.488Z,73.32
2018-03-17T05:45:37.497Z,73.13
2018-03-17T05:46:37.507Z,73.6
2018-03-17T05:47:37.517Z,73.51
2018-03-17T05:48:37.527Z,73.6
2018-03-17T05:49:37.637Z,73.41
2018-03-17T05:50:37.552Z,73.41
2018-03-17T05:51:37.559Z,73.6
2018-03-17T05:52:37.567Z,73.69
2018-03-17T05:53:37.580Z,73.32
2018-03-17T05:54:37.588Z,73.32
2018-03-17T05:55:52.264Z,73.69
2018-03-17T05:56:37.609Z,73.41
2018-03-17T05:57:37.619Z,73.22
2018-03-17T05:58:37.732Z,73.32
2018-03-17T05:59:37.642Z,73.51
2018-03-17T06:00:37.649Z,73.22
2018-03-17T06:01:37.659Z,73.41
2018-03-17T06:02:37.675Z,73.6
2018-03-17T06:03:37.681Z,72.66
2018-03-17T06:04:37.687Z,72.85
2018-03-17T06:05:37.703Z,73.32
2018-03-17T06:06:37.715Z,72.85
2018-03-17T06:07:37.728Z,72.94
2018-03-17T06:08:37.733Z,73.03
2018-03-17T06:09:37.744Z,72.66
2018-03-17T06:10:37.552Z,72
2018-03-17T06:11:52.435Z,72
2018-03-17T06:12:37.783Z,71.72
2018-03-17T06:14:37.545Z,70.96
2018-03-17T06:15:37.820Z,70.96
2018-03-17T06:16:37.835Z,71.15
2018-03-17T06:17:37.838Z,70.87
2018-03-17T06:18:37.847Z,70.96
2018-03-17T06:19:37.865Z,70.87
2018-03-17T06:20:37.875Z,70.77
2018-03-17T06:21:37.893Z,70.49
2018-03-17T06:22:37.904Z,70.9
2018-03-17T06:23:37.962Z,70.72
2018-03-17T06:24:37.931Z,70.53
2018-03-17T06:25:37.941Z,70.24
2018-03-17T06:26:37.955Z,69.73
2018-03-17T06:27:52.635Z,70.02
2018-03-17T06:28:37.984Z,70.2
2018-03-17T06:29:37.995Z,69.92
2018-03-17T06:31:38.022Z,70.2
2018-03-17T06:32:37.783Z,69.83
2018-03-17T06:33:37.792Z,70.3
2018-03-17T06:34:38.062Z,69.92
2018-03-17T06:35:38.076Z,70.3
2018-03-17T06:36:38.090Z,69.26
2018-03-17T06:37:38.108Z,69.64
2018-03-17T06:38:38.120Z,69.83
2018-03-17T06:39:37.876Z,70.11
2018-03-17T06:40:38.150Z,69.64
2018-03-17T06:41:38.159Z,69.54
2018-03-17T06:42:52.841Z,70.11
2018-03-17T06:43:38.186Z,69.77
2018-03-17T06:44:37.948Z,69.2
2018-03-17T06:46:38.231Z,68.73
2018-03-17T06:47:38.251Z,68.63
2018-03-17T06:48:38.260Z,68.44
2018-03-17T06:49:38.279Z,68.63
2018-03-17T06:50:38.298Z,68.54
2018-03-17T06:51:38.314Z,68.44
2018-03-17T06:52:38.320Z,68.35
2018-03-17T06:53:38.341Z,68.54
2018-03-17T06:54:38.099Z,68.73
2018-03-17T06:55:38.370Z,67.88
2018-03-17T06:56:38.384Z,67.97
2018-03-17T06:57:38.399Z,67.69
2018-03-17T06:58:38.433Z,68.07
2018-03-17T06:59:38.432Z,67.97
2018-03-17T07:00:38.459Z,68.26
2018-03-17T07:01:38.467Z,68.35
2018-03-17T07:02:38.490Z,67.97
2018-03-17T07:03:38.497Z,68.26
2018-03-17T07:04:38.514Z,67.88
2018-03-17T07:05:38.529Z,67.41
2018-03-17T07:06:38.555Z,68.07
2018-03-17T07:07:38.566Z,68.16
2018-03-17T07:08:38.575Z,67.69
2018-03-17T07:10:38.607Z,67.41
2018-03-17T07:11:38.628Z,67.88
2018-03-17T07:12:38.640Z,68.26
2018-03-17T07:14:53.338Z,67.41
2018-03-17T07:15:38.687Z,67.41
2018-03-17T07:16:38.706Z,67.5
2018-03-17T07:17:38.717Z,67.03
2018-03-17T07:19:38.752Z,66.84
2018-03-17T07:20:38.513Z,66.84
2018-03-17T07:21:38.783Z,67.22
2018-03-17T07:22:38.799Z,66.56
2018-03-17T07:23:38.815Z,66.65
2018-03-17T07:24:38.832Z,67.03
2018-03-17T07:25:38.848Z,66.94
2018-03-17T07:26:38.867Z,66.65
2018-03-17T07:27:38.886Z,66.56
2018-03-17T07:28:38.897Z,66.56
2018-03-17T07:30:53.598Z,66.47
2018-03-17T07:32:38.961Z,67.13
2018-03-17T07:33:38.722Z,67.5
2018-03-17T07:34:38.994Z,67.5
2018-03-17T07:35:39.057Z,67.03
2018-03-17T07:36:39.022Z,67.66
2018-03-17T07:37:39.042Z,67.6
2018-03-17T07:38:39.053Z,67.79
2018-03-17T07:39:39.069Z,67.69
2018-03-17T07:40:39.081Z,67.6
2018-03-17T07:41:39.100Z,67.03
2018-03-17T07:42:39.115Z,66.94
2018-03-17T07:43:39.127Z,66.94
2018-03-17T07:44:39.143Z,66.84
2018-03-17T07:45:39.155Z,66.28
2018-03-17T07:46:53.836Z,66.56
2018-03-17T07:48:39.204Z,66.09
2018-03-17T07:49:39.219Z,65.27
2018-03-17T07:50:39.233Z,64.61
2018-03-17T07:51:39.255Z,64.14
2018-03-17T07:52:39.263Z,63.67
2018-03-17T07:53:39.277Z,63.76
2018-03-17T07:54:39.297Z,63.67
2018-03-17T07:55:39.311Z,63.95
2018-03-17T07:56:39.328Z,63.48
2018-03-17T07:57:39.084Z,63.67
2018-03-17T07:58:39.360Z,63.67
2018-03-17T07:59:39.375Z,63.19
2018-03-17T08:00:39.390Z,63
2018-03-17T08:01:39.406Z,62.34
2018-03-17T08:02:54.127Z,62.34
2018-03-17T08:03:39.439Z,61.58
2018-03-17T08:04:39.461Z,61.4
2018-03-17T08:05:39.476Z,61.52
2018-03-17T08:06:39.494Z,60.93
2018-03-17T08:07:39.510Z,61.3
2018-03-17T08:08:39.527Z,60.83
2018-03-17T08:09:39.544Z,61.21
2018-03-17T08:10:39.567Z,61.49
2018-03-17T08:11:39.580Z,61.4
2018-03-17T08:12:39.597Z,61.21
2018-03-17T08:13:39.359Z,61.58
2018-03-17T08:14:39.633Z,60.67
2018-03-17T08:15:39.651Z,60.86
2018-03-17T08:16:39.670Z,60.27
2018-03-17T08:17:54.354Z,59.73
2018-03-17T08:18:39.705Z,59.7
2018-03-17T08:19:39.724Z,59.41
2018-03-17T08:20:39.743Z,59.7
2018-03-17T08:21:39.764Z,59.82
2018-03-17T08:22:39.775Z,60.01
2018-03-17T08:23:39.792Z,59.44
2018-03-17T08:24:39.859Z,59.73
2018-03-17T08:25:39.826Z,59.89
2018-03-17T08:26:39.845Z,59.89
2018-03-17T08:27:39.977Z,59.6
2018-03-17T08:28:39.884Z,59.79
2018-03-17T08:29:39.896Z,60.36
2018-03-17T08:30:39.913Z,61.02
2018-03-17T08:31:39.928Z,61.49
2018-03-17T08:32:39.945Z,60.93
2018-03-17T08:33:39.963Z,61.49
2018-03-17T08:35:39.997Z,60.64
2018-03-17T08:36:40.015Z,60.64
2018-03-17T08:37:40.027Z,60.55
2018-03-17T08:38:40.044Z,60.64
2018-03-17T08:39:40.061Z,60.74
2018-03-17T08:40:39.820Z,60.17
2018-03-17T08:41:40.092Z,60.74
2018-03-17T08:42:40.111Z,60.27
2018-03-17T08:43:40.124Z,59.6
2018-03-17T08:44:40.191Z,59.63
2018-03-17T08:45:40.152Z,59.82
2018-03-17T08:46:40.173Z,59.92
2018-03-17T08:47:40.197Z,59.03
2018-03-17T08:48:40.218Z,59.32
2018-03-17T08:49:54.885Z,59.98
2018-03-17T08:50:40.243Z,59.79
2018-03-17T08:51:39.996Z,59.79
2018-03-17T08:52:40.267Z,59.98
2018-03-17T08:53:40.282Z,59.6
2018-03-17T08:54:40.298Z,60.17
2018-03-17T08:55:40.314Z,60.27
2018-03-17T08:56:40.073Z,59.98
2018-03-17T08:57:40.345Z,59.7
2018-03-17T08:58:40.358Z,60.17
2018-03-17T08:59:40.374Z,60.3
2018-03-17T09:00:40.401Z,59.82
2018-03-17T09:01:40.406Z,59.82
2018-03-17T09:02:40.420Z,59.35
2018-03-17T09:03:40.441Z,59.35
2018-03-17T09:04:40.450Z,59.35
2018-03-17T09:05:55.132Z,58.87
2018-03-17T09:06:40.224Z,58.31
2018-03-17T09:07:40.493Z,59.06
2018-03-17T09:08:40.512Z,58.5
2018-03-17T09:09:40.282Z,58.4
2018-03-17T09:10:40.546Z,59.06
2018-03-17T09:11:40.557Z,58.78
2018-03-17T09:12:40.324Z,58.97
2018-03-17T09:13:40.597Z,58.59
2018-03-17T09:14:40.601Z,58.97
2018-03-17T09:15:40.360Z,58.78
2018-03-17T09:16:40.633Z,58.69
2018-03-17T09:17:40.701Z,58.97
2018-03-17T09:18:40.661Z,59.25
2018-03-17T09:19:40.681Z,59.16
2018-03-17T09:20:40.693Z,58.97
2018-03-17T09:21:55.374Z,58.69
2018-03-17T09:23:40.741Z,58.34
2018-03-17T09:24:40.778Z,58.06
2018-03-17T09:25:40.774Z,57.49
2018-03-17T09:26:40.783Z,57.2
2018-03-17T09:27:40.800Z,57.11
2018-03-17T09:28:40.815Z,56.63
2018-03-17T09:29:40.832Z,56.89
2018-03-17T09:30:40.847Z,56.73
2018-03-17T09:31:40.607Z,57.3
2018-03-17T09:32:40.878Z,57.3
2018-03-17T09:33:40.905Z,57.2
2018-03-17T09:34:40.911Z,56.63
2018-03-17T09:35:40.933Z,56.73
2018-03-17T09:36:40.944Z,56.54
2018-03-17T09:37:55.627Z,56.35
2018-03-17T09:38:40.976Z,55.6
2018-03-17T09:39:40.995Z,55.88
2018-03-17T09:40:40.803Z,55.88
2018-03-17T09:41:41.025Z,55.91
2018-03-17T09:42:41.054Z,55.25
2018-03-17T09:43:41.059Z,55.34
2018-03-17T09:44:41.077Z,55.12
2018-03-17T09:45:40.837Z,55.41
2018-03-17T09:46:41.111Z,55.88
2018-03-17T09:47:41.174Z,55.25
2018-03-17T09:48:41.143Z,55.15
2018-03-17T09:49:41.161Z,55.25
2018-03-17T09:50:41.178Z,54.96
2018-03-17T09:51:41.192Z,54.21
2018-03-17T09:52:55.982Z,54.11
2018-03-17T09:54:40.989Z,54.18
2018-03-17T09:55:41.266Z,54.74
2018-03-17T09:56:41.024Z,55.31
2018-03-17T09:57:41.297Z,55.03
2018-03-17T09:58:41.314Z,55.03
2018-03-17T09:59:41.330Z,55.03
2018-03-17T10:00:41.091Z,55.41
2018-03-17T10:01:41.364Z,54.93
2018-03-17T10:02:41.381Z,54.39
2018-03-17T10:03:41.401Z,54.27
2018-03-17T10:04:41.415Z,54.37
2018-03-17T10:05:41.431Z,54.18
2018-03-17T10:07:41.261Z,54.74
2018-03-17T10:08:41.484Z,55.03
2018-03-17T10:11:41.534Z,55.22
2018-03-17T10:12:41.547Z,55.22
2018-03-17T10:13:41.311Z,55.79
2018-03-17T10:14:41.583Z,55.69
2018-03-17T10:15:41.650Z,55.98
2018-03-17T10:16:41.359Z,56.07
2018-03-17T10:17:41.631Z,56.07
2018-03-17T10:18:41.650Z,55.79
2018-03-17T10:19:41.665Z,55.69
2018-03-17T10:20:41.683Z,55.69
2018-03-17T10:21:41.697Z,56.54
2018-03-17T10:22:41.715Z,56.54
2018-03-17T10:23:41.726Z,55.69
2018-03-17T10:24:56.413Z,55.41
2018-03-17T10:25:41.762Z,55.22
2018-03-17T10:26:41.778Z,55.6
2018-03-17T10:27:41.792Z,55.22
2018-03-17T10:28:41.810Z,55.12
2018-03-17T10:29:41.824Z,55.03
2018-03-17T10:30:41.843Z,55.6
2018-03-17T10:31:41.904Z,55.22
2018-03-17T10:32:41.872Z,55.22
2018-03-17T10:33:41.888Z,55.12
2018-03-17T10:34:41.647Z,55.06
2018-03-17T10:35:41.917Z,55.22
2018-03-17T10:36:41.946Z,54.87
2018-03-17T10:37:41.966Z,54.96
2018-03-17T10:38:41.965Z,54.87
2018-03-17T10:39:41.979Z,54.39
2018-03-17T10:40:56.663Z,54.02
2018-03-17T10:41:42.010Z,53.99
2018-03-17T10:42:42.030Z,54.02
2018-03-17T10:43:42.052Z,53.8
2018-03-17T10:44:42.060Z,54.18
2018-03-17T10:45:42.073Z,54.3
2018-03-17T10:46:42.093Z,53.92
2018-03-17T10:47:42.106Z,54.11
2018-03-17T10:48:42.125Z,54.39
2018-03-17T10:49:42.136Z,54.21
2018-03-17T10:50:42.156Z,54.02
2018-03-17T10:51:42.166Z,54.21
2018-03-17T10:52:42.185Z,54.27
2018-03-17T10:53:42.195Z,54.46
2018-03-17T10:54:41.957Z,55.41
2018-03-17T10:55:42.226Z,55.22
2018-03-17T10:56:56.909Z,55.12
2018-03-17T10:57:42.260Z,55.41
2018-03-17T10:58:42.017Z,55.94
2018-03-17T10:59:42.289Z,56.54
2018-03-17T11:00:42.303Z,56.63
2018-03-17T11:01:42.314Z,56.51
2018-03-17T11:02:42.353Z,56.99
2018-03-17T11:03:42.347Z,57.18
2018-03-17T11:04:42.358Z,58.22
2018-03-17T11:05:42.375Z,57.74
2018-03-17T11:06:42.405Z,58.03
2018-03-17T11:07:42.402Z,58.4
2018-03-17T11:08:42.471Z,58.78
2018-03-17T11:09:42.430Z,58.4
2018-03-17T11:10:42.455Z,58.5
2018-03-17T11:12:57.141Z,58.97
2018-03-17T11:13:42.489Z,58.97
2018-03-17T11:14:42.503Z,58.78
2018-03-17T11:15:42.522Z,58.65
2018-03-17T11:16:42.581Z,58.56
2018-03-17T11:17:42.288Z,59.13
2018-03-17T11:18:42.556Z,58.84
2018-03-17T11:19:42.621Z,58.97
2018-03-17T11:20:42.585Z,58.97
2018-03-17T11:21:42.602Z,59.35
2018-03-17T11:22:42.355Z,59.16
2018-03-17T11:23:42.632Z,58.97
2018-03-17T11:24:42.384Z,58.69
2018-03-17T11:25:42.655Z,59.06
2018-03-17T11:26:42.666Z,58.5
2018-03-17T11:27:57.348Z,58.31
2018-03-17T11:28:42.696Z,59.06
2018-03-17T11:30:42.722Z,58.59
2018-03-17T11:31:42.736Z,58.4
2018-03-17T11:32:42.755Z,58.4
2018-03-17T11:33:42.760Z,58.78
2018-03-17T11:34:42.880Z,58.31
2018-03-17T11:35:42.792Z,58.22
2018-03-17T11:36:42.803Z,58.5
2018-03-17T11:37:42.561Z,58.22
2018-03-17T11:38:42.885Z,58.03
2018-03-17T11:39:42.849Z,58.59
2018-03-17T11:40:42.893Z,57.93
2018-03-17T11:41:42.873Z,58.22
2018-03-17T11:42:42.885Z,58.25
2018-03-17T11:43:42.913Z,58.25
2018-03-17T11:44:42.914Z,58.06
2018-03-17T11:45:42.927Z,57.58
2018-03-17T11:46:42.940Z,57.65
2018-03-17T11:47:42.953Z,57.68
2018-03-17T11:48:43.017Z,57.39
2018-03-17T11:49:42.984Z,57.58
2018-03-17T11:50:42.997Z,57.58
2018-03-17T11:51:43.010Z,57.68
2018-03-17T11:52:43.024Z,57.96
2018-03-17T11:53:43.041Z,57.2
2018-03-17T11:55:43.077Z,56.82
2018-03-17T11:56:42.825Z,56.45
2018-03-17T11:57:43.094Z,56.45
2018-03-17T11:58:43.107Z,56.54
2018-03-17T11:59:57.788Z,56.54
2018-03-17T12:00:43.185Z,56.45
2018-03-17T12:02:43.161Z,56.54
2018-03-17T12:03:43.176Z,56.63
2018-03-17T12:04:43.191Z,56.45
2018-03-17T12:05:43.209Z,56.82
2018-03-17T12:06:43.216Z,57.2
2018-03-17T12:07:43.233Z,57.39
2018-03-17T12:08:42.991Z,57.58
2018-03-17T12:09:43.261Z,58.15
2018-03-17T12:10:43.273Z,57.96
2018-03-17T12:11:43.286Z,58.06
2018-03-17T12:12:43.303Z,58.25
2018-03-17T12:13:43.316Z,57.84
2018-03-17T12:15:58.010Z,58.62
2018-03-17T12:17:43.380Z,58.62
2018-03-17T12:18:43.134Z,58.44
2018-03-17T12:19:43.399Z,58.06
2018-03-17T12:20:43.471Z,57.58
2018-03-17T12:21:43.424Z,57.01
2018-03-17T12:22:43.442Z,57.11
2018-03-17T12:23:43.198Z,57.01
2018-03-17T12:24:43.465Z,56.92
2018-03-17T12:25:43.481Z,56.73
2018-03-17T12:26:43.496Z,57.11
2018-03-17T12:27:43.508Z,56.73
2018-03-17T12:28:43.522Z,56.54
2018-03-17T12:29:43.539Z,56.26
2018-03-17T12:30:43.551Z,56.82
2018-03-17T12:31:58.230Z,57.3
2018-03-17T12:32:43.675Z,57.11
2018-03-17T12:34:43.604Z,56.92
2018-03-17T12:35:43.619Z,56.92
2018-03-17T12:36:43.634Z,56.63
2018-03-17T12:37:43.646Z,56.63
2018-03-17T12:38:43.661Z,56.63
2018-03-17T12:39:43.674Z,56.63
2018-03-17T12:40:43.687Z,56.35
2018-03-17T12:41:43.705Z,56.54
2018-03-17T12:42:43.718Z,56.54
2018-03-17T12:43:43.729Z,56.73
2018-03-17T12:44:43.742Z,56.54
2018-03-17T12:45:43.768Z,56.73
2018-03-17T12:46:43.870Z,56.54
2018-03-17T12:47:58.451Z,56.45
2018-03-17T12:48:43.802Z,56.35
2018-03-17T12:49:43.817Z,56.73
2018-03-17T12:50:43.826Z,56.73
2018-03-17T12:51:43.838Z,56.73
2018-03-17T12:52:43.851Z,56.54
2018-03-17T12:53:43.865Z,56.63
2018-03-17T12:54:43.931Z,56.54
2018-03-17T12:55:43.896Z,56.35
2018-03-17T12:56:43.653Z,56.63
2018-03-17T12:57:43.920Z,56.82
2018-03-17T12:59:43.957Z,57.2
2018-03-17T13:00:43.963Z,57.11
2018-03-17T13:02:58.658Z,57.27
2018-03-17T13:03:44.048Z,57.49
2018-03-17T13:04:44.022Z,57.49
2018-03-17T13:05:44.031Z,58.15
2018-03-17T13:06:44.044Z,57.87
2018-03-17T13:07:44.057Z,57.68
2018-03-17T13:08:44.173Z,58.15
2018-03-17T13:09:44.084Z,57.77
2018-03-17T13:10:44.100Z,57.33
2018-03-17T13:11:44.112Z,56.67
2018-03-17T13:12:44.131Z,56.45
2018-03-17T13:13:43.990Z,56.26
2018-03-17T13:15:44.187Z,55.69
2018-03-17T13:16:44.187Z,55.5
2018-03-17T13:17:44.198Z,55.79
2018-03-17T13:18:44.217Z,55.91
2018-03-17T13:19:44.229Z,55.63
2018-03-17T13:20:44.237Z,55.41
2018-03-17T13:21:44.255Z,55.72
2018-03-17T13:22:44.272Z,55.91
2018-03-17T13:23:44.285Z,55.34
2018-03-17T13:24:44.296Z,55.06
2018-03-17T13:25:44.306Z,54.3
2018-03-17T13:26:44.371Z,54.39
2018-03-17T13:27:44.333Z,54.21
2018-03-17T13:28:44.351Z,54.49
2018-03-17T13:29:44.106Z,54.39
2018-03-17T13:30:44.376Z,55.15
2018-03-17T13:31:44.392Z,54.39
2018-03-17T13:32:44.147Z,54.49
2018-03-17T13:33:44.160Z,54.3
2018-03-17T13:34:59.098Z,54.21
2018-03-17T13:35:44.190Z,53.64
2018-03-17T13:36:44.459Z,53.36
2018-03-17T13:37:44.475Z,54.11
2018-03-17T13:38:44.491Z,54.21
2018-03-17T13:39:44.515Z,53.74
2018-03-17T13:40:44.528Z,54.3
2018-03-17T13:41:44.536Z,54.3
2018-03-17T13:42:44.550Z,54.58